createdAt,value
2023-06-09T00:00:08.781Z,67.67
2023-06-09T00:02:37.032Z,67.31
2023-06-09T00:05:05.920Z,67.61
2023-06-09T00:07:37.334Z,68.89
2023-06-09T00:10:06.210Z,69.63
2023-06-09T00:12:34.058Z,70.31
2023-06-09T00:15:01.990Z,70.05
2023-06-09T00:17:31.252Z,69.72
2023-06-09T00:20:04.718Z,71.03
2023-06-09T00:22:32.937Z,71.19
2023-06-09T00:26:08.388Z,70.63
2023-06-09T00:29:53.142Z,71.35
2023-06-09T00:32:29.973Z,70.47
2023-06-09T00:34:57.851Z,71.22
2023-06-09T00:37:25.881Z,71.82
2023-06-09T00:39:53.858Z,72.19
2023-06-09T00:42:21.635Z,72.25
2023-06-09T00:44:49.637Z,72.33
2023-06-09T00:47:18.564Z,72.58
2023-06-09T00:49:47.091Z,71.91
2023-06-09T00:52:16.822Z,72.27
2023-06-09T00:54:45.160Z,71.67
2023-06-09T00:57:13.802Z,72.16
2023-06-09T00:59:41.739Z,72.11
2023-06-09T01:02:10.124Z,71.18
2023-06-09T01:04:38.090Z,71.69
2023-06-09T01:07:22.159Z,71.93
2023-06-09T01:10:10.584Z,71.84
2023-06-09T01:13:02.316Z,71.61
2023-06-09T01:15:38.774Z,71.32
2023-06-09T01:18:14.153Z,71.78
2023-06-09T01:20:46.013Z,71.45
2023-06-09T01:23:40.602Z,71.64
2023-06-09T01:26:09.989Z,71.33
2023-06-09T01:28:39.396Z,71.43
2023-06-09T01:31:09.620Z,71.00
2023-06-09T01:33:38.164Z,70.88
2023-06-09T01:36:07.127Z,71.26
2023-06-09T01:38:35.216Z,70.81
2023-06-09T01:41:05.096Z,70.63
2023-06-09T01:43:33.035Z,70.87
2023-06-09T01:46:01.231Z,70.92
2023-06-09T01:49:07.611Z,70.63
2023-06-09T01:51:42.643Z,70.48
2023-06-09T01:54:22.269Z,70.73
2023-06-09T01:57:06.735Z,70.44
2023-06-09T01:59:48.912Z,70.30
2023-06-09T02:02:20.467Z,69.90
2023-06-09T02:04:53.570Z,69.94
2023-06-09T02:07:23.081Z,70.37
2023-06-09T02:09:51.846Z,70.09
2023-06-09T02:12:19.835Z,70.69
2023-06-09T02:14:47.728Z,70.68
2023-06-09T02:17:16.876Z,70.58
2023-06-09T02:19:46.624Z,70.98
2023-06-09T02:22:14.519Z,70.72
2023-06-09T02:24:42.290Z,71.22
2023-06-09T02:27:10.170Z,71.33
2023-06-09T02:29:37.996Z,71.43
2023-06-09T02:32:06.422Z,71.18
2023-06-09T02:34:34.272Z,71.27
2023-06-09T02:37:03.516Z,70.91
2023-06-09T02:39:31.358Z,70.79
2023-06-09T02:41:59.772Z,70.58
2023-06-09T02:44:27.625Z,70.80
2023-06-09T02:46:56.015Z,70.98
2023-06-09T02:49:23.850Z,71.09
2023-06-09T02:51:51.684Z,71.16
2023-06-09T02:54:19.583Z,71.16
2023-06-09T02:56:47.588Z,70.85
2023-06-09T02:59:15.664Z,71.20
2023-06-09T03:01:44.035Z,71.93
2023-06-09T03:04:13.869Z,71.67
2023-06-09T03:06:44.634Z,71.87
2023-06-09T03:09:14.335Z,71.86
2023-06-09T03:11:42.469Z,71.72
2023-06-09T03:14:10.306Z,72.35
2023-06-09T03:16:38.233Z,72.24
2023-06-09T03:19:06.789Z,72.30
2023-06-09T03:21:36.766Z,72.52
2023-06-09T03:24:07.492Z,73.07
2023-06-09T03:26:35.486Z,73.27
2023-06-09T03:29:03.414Z,73.24
2023-06-09T03:31:31.433Z,74.05
2023-06-09T03:33:59.430Z,74.35
2023-06-09T03:36:28.358Z,72.47
2023-06-09T03:38:56.316Z,72.07
2023-06-09T03:41:24.069Z,71.82
2023-06-09T03:43:52.158Z,71.64
2023-06-09T03:46:20.180Z,70.43
2023-06-09T03:48:48.495Z,68.41
2023-06-09T03:51:17.530Z,66.91
2023-06-09T03:53:45.735Z,65.74
2023-06-09T03:56:15.100Z,63.88
2023-06-09T03:58:42.918Z,61.53
2023-06-09T04:01:12.246Z,59.38
2023-06-09T04:03:40.675Z,57.40
2023-06-09T04:06:08.609Z,55.74
2023-06-09T04:08:36.456Z,54.13
2023-06-09T04:11:04.294Z,53.05
2023-06-09T04:13:32.185Z,52.42
2023-06-09T04:16:00.066Z,51.95
2023-06-09T04:18:27.946Z,52.21
2023-06-09T04:20:55.790Z,53.55
2023-06-09T04:23:23.714Z,54.19
2023-06-09T04:25:54.683Z,53.63
2023-06-09T04:28:22.680Z,51.83
2023-06-09T04:30:51.428Z,50.94
2023-06-09T04:33:19.683Z,49.95
2023-06-09T04:35:48.103Z,48.92
2023-06-09T04:38:18.333Z,48.30
2023-06-09T04:40:47.026Z,47.91
2023-06-09T04:43:15.261Z,48.81
2023-06-09T04:45:44.664Z,50.92
2023-06-09T04:48:14.025Z,52.01
2023-06-09T04:50:46.074Z,51.65
2023-06-09T04:53:14.158Z,50.73
2023-06-09T04:55:42.804Z,50.07
2023-06-09T04:58:10.623Z,49.65
2023-06-09T05:00:38.599Z,49.80
2023-06-09T05:03:06.707Z,50.22
2023-06-09T05:05:34.616Z,50.41
2023-06-09T05:08:02.542Z,50.62
2023-06-09T05:10:30.558Z,51.35
2023-06-09T05:12:58.436Z,51.44
2023-06-09T05:15:27.732Z,52.15
2023-06-09T05:17:55.950Z,53.04
2023-06-09T05:20:23.885Z,53.87
2023-06-09T05:22:51.730Z,54.53
2023-06-09T05:25:20.427Z,55.05
2023-06-09T05:27:48.347Z,55.65
2023-06-09T05:30:16.344Z,55.64
2023-06-09T05:32:44.388Z,56.14
2023-06-09T05:35:15.472Z,56.98
2023-06-09T05:37:53.087Z,57.33
2023-06-09T05:40:21.495Z,57.97
2023-06-09T05:42:51.109Z,58.17
2023-06-09T05:45:19.044Z,58.21
2023-06-09T05:47:47.309Z,58.45
2023-06-09T05:50:15.462Z,58.53
2023-06-09T05:52:43.621Z,58.58
2023-06-09T05:55:12.108Z,58.46
2023-06-09T05:57:41.645Z,58.53
2023-06-09T06:00:11.063Z,59.07
2023-06-09T06:02:40.020Z,59.40
2023-06-09T06:05:09.312Z,59.76
2023-06-09T06:07:38.460Z,59.86
2023-06-09T06:10:08.167Z,60.07
2023-06-09T06:12:36.527Z,60.34
2023-06-09T06:15:05.057Z,60.29
2023-06-09T06:17:32.953Z,60.17
2023-06-09T06:20:00.966Z,60.06
2023-06-09T06:22:29.041Z,59.77
2023-06-09T06:24:57.655Z,59.52
2023-06-09T06:27:25.987Z,58.86
2023-06-09T06:29:54.067Z,58.87
2023-06-09T06:32:22.119Z,59.26
2023-06-09T06:34:50.320Z,59.78
2023-06-09T06:37:19.410Z,59.77
2023-06-09T06:39:47.245Z,59.82
2023-06-09T06:42:15.121Z,59.66
2023-06-09T06:44:43.104Z,59.58
2023-06-09T06:47:11.530Z,59.44
2023-06-09T06:49:39.623Z,59.84
2023-06-09T06:52:07.441Z,60.07
2023-06-09T06:54:35.357Z,60.13
2023-06-09T06:57:03.855Z,60.16
2023-06-09T06:59:31.605Z,60.36
2023-06-09T07:01:59.421Z,60.56
2023-06-09T07:04:27.460Z,60.41
2023-06-09T07:06:55.648Z,60.15
2023-06-09T07:09:24.915Z,59.63
2023-06-09T07:11:58.129Z,59.46
2023-06-09T07:14:25.915Z,59.50
2023-06-09T07:16:53.924Z,59.72
2023-06-09T07:19:21.727Z,59.67
2023-06-09T07:21:49.681Z,59.53
2023-06-09T07:24:17.679Z,59.51
2023-06-09T07:26:45.664Z,59.32
2023-06-09T07:29:13.915Z,58.77
2023-06-09T07:31:41.807Z,59.20
2023-06-09T07:34:09.904Z,59.17
2023-06-09T07:36:38.736Z,59.65
2023-06-09T07:39:07.055Z,59.84
2023-06-09T07:41:35.120Z,59.49
2023-06-09T07:44:04.046Z,59.60
2023-06-09T07:46:33.322Z,59.33
2023-06-09T07:49:01.959Z,58.70
2023-06-09T07:51:30.381Z,58.31
2023-06-09T07:53:58.301Z,57.60
2023-06-09T07:56:26.179Z,57.52
2023-06-09T07:58:54.231Z,57.39
2023-06-09T08:01:22.241Z,57.57
2023-06-09T08:03:50.376Z,57.92
2023-06-09T08:06:18.489Z,58.46
2023-06-09T08:08:46.458Z,58.72
2023-06-09T08:11:14.430Z,58.73
2023-06-09T08:13:42.364Z,58.57
2023-06-09T08:16:10.375Z,58.28
2023-06-09T08:18:38.398Z,58.19
2023-06-09T08:21:06.732Z,58.10
2023-06-09T08:23:35.274Z,58.36
2023-06-09T08:26:03.698Z,58.30
2023-06-09T08:28:32.132Z,57.71
2023-06-09T08:31:00.902Z,56.53
2023-06-09T08:33:30.977Z,56.32
2023-06-09T08:35:59.987Z,56.28
2023-06-09T08:38:29.289Z,56.19
2023-06-09T08:41:12.622Z,56.96
2023-06-09T08:43:40.878Z,57.22
2023-06-09T08:46:13.919Z,57.12
2023-06-09T08:48:52.706Z,56.58
2023-06-09T08:51:23.541Z,56.04
2023-06-09T08:53:56.551Z,55.55
2023-06-09T08:56:24.913Z,54.94
2023-06-09T08:58:53.863Z,54.43
2023-06-09T09:01:22.564Z,54.07
2023-06-09T09:03:51.819Z,53.35
2023-06-09T09:06:21.560Z,52.84
2023-06-09T09:08:51.719Z,53.27
2023-06-09T09:11:20.041Z,53.63
2023-06-09T09:13:51.339Z,53.62
2023-06-09T09:16:20.377Z,53.89
2023-06-09T09:18:49.505Z,53.92
2023-06-09T09:21:25.664Z,53.87
2023-06-09T09:24:05.750Z,53.32
2023-06-09T09:26:35.348Z,53.32
2023-06-09T09:29:08.142Z,52.79
2023-06-09T09:31:40.970Z,51.69
2023-06-09T09:34:14.677Z,50.81
2023-06-09T09:36:49.288Z,51.04
2023-06-09T09:39:17.945Z,50.70
2023-06-09T09:42:11.726Z,50.83
2023-06-09T09:44:44.838Z,50.87
2023-06-09T09:47:14.691Z,51.05
2023-06-09T09:50:00.172Z,50.71
2023-06-09T09:52:35.607Z,51.25
2023-06-09T09:55:09.959Z,51.20
2023-06-09T09:57:41.098Z,51.68
2023-06-09T10:00:13.998Z,52.05
2023-06-09T10:02:47.215Z,52.05
2023-06-09T10:05:17.549Z,52.21
2023-06-09T10:07:53.290Z,52.20
2023-06-09T10:10:21.896Z,52.06
2023-06-09T10:12:53.091Z,52.30
2023-06-09T10:15:22.347Z,52.78
2023-06-09T10:17:56.944Z,52.90
2023-06-09T10:20:25.399Z,52.84
2023-06-09T10:22:54.567Z,52.50
2023-06-09T10:25:25.512Z,52.80
2023-06-09T10:27:53.874Z,52.82
2023-06-09T10:30:22.611Z,52.72
2023-06-09T10:33:15.926Z,52.59
2023-06-09T10:35:48.837Z,52.75
2023-06-09T10:38:43.384Z,52.66
2023-06-09T10:41:35.562Z,52.59
2023-06-09T10:44:38.078Z,52.92
2023-06-09T10:47:06.496Z,53.07
2023-06-09T10:49:39.352Z,53.17
2023-06-09T10:52:29.556Z,53.13
2023-06-09T10:55:16.389Z,52.48
2023-06-09T10:57:44.620Z,52.60
2023-06-09T11:00:13.531Z,52.79
2023-06-09T11:02:50.352Z,53.25
2023-06-09T11:05:21.869Z,53.59
2023-06-09T11:08:04.828Z,54.37
2023-06-09T11:10:33.380Z,54.76
2023-06-09T11:13:03.747Z,54.94
2023-06-09T11:16:02.466Z,55.15
2023-06-09T11:18:32.837Z,55.30
2023-06-09T11:21:21.437Z,55.19
2023-06-09T11:24:05.436Z,54.79
2023-06-09T11:26:35.292Z,55.03
2023-06-09T11:29:05.400Z,55.03
2023-06-09T11:31:49.439Z,55.18
2023-06-09T11:34:51.410Z,54.82
2023-06-09T11:37:21.915Z,54.70
2023-06-09T11:39:51.483Z,54.92
2023-06-09T11:42:20.268Z,55.54
2023-06-09T11:44:49.123Z,55.93
2023-06-09T11:47:31.259Z,56.07
2023-06-09T11:50:20.290Z,56.57
2023-06-09T11:52:48.873Z,56.78
2023-06-09T11:55:16.846Z,56.66
2023-06-09T11:57:44.826Z,56.61
2023-06-09T12:00:20.944Z,56.06
2023-06-09T12:02:51.125Z,56.66
2023-06-09T12:05:20.516Z,57.00
2023-06-09T12:07:50.559Z,56.17
2023-06-09T12:10:23.393Z,56.09
2023-06-09T12:12:54.505Z,56.00
2023-06-09T12:15:24.908Z,55.78
2023-06-09T12:17:56.005Z,56.51
2023-06-09T12:20:30.080Z,56.88
2023-06-09T12:23:04.214Z,57.42
2023-06-09T12:25:36.446Z,57.66
2023-06-09T12:28:29.006Z,57.60
2023-06-09T12:31:19.879Z,57.29
2023-06-09T12:33:50.372Z,57.50
2023-06-09T12:36:20.454Z,56.87
2023-06-09T12:38:50.180Z,57.33
2023-06-09T12:41:19.408Z,57.73
2023-06-09T12:43:52.941Z,57.82
2023-06-09T12:46:41.767Z,58.00
2023-06-09T12:49:11.865Z,58.02
2023-06-09T12:51:43.634Z,58.04
2023-06-09T12:54:14.391Z,58.12
2023-06-09T12:56:42.292Z,57.89
2023-06-09T12:59:10.871Z,57.57
2023-06-09T13:01:39.841Z,57.15
2023-06-09T13:04:08.339Z,56.90
2023-06-09T13:06:37.683Z,57.03
2023-06-09T13:09:05.619Z,56.99
2023-06-09T13:11:33.569Z,57.04
2023-06-09T13:14:02.824Z,56.90
2023-06-09T13:16:32.715Z,56.47
2023-06-09T13:19:01.112Z,56.20
2023-06-09T13:21:43.705Z,56.21
2023-06-09T13:24:13.672Z,56.41
2023-06-09T13:26:42.299Z,56.63
2023-06-09T13:29:10.554Z,56.95
2023-06-09T13:31:38.668Z,57.09
2023-06-09T13:34:06.744Z,57.41
2023-06-09T13:36:35.339Z,57.88
2023-06-09T13:39:04.174Z,57.90
2023-06-09T13:41:32.308Z,58.03
2023-06-09T13:44:00.695Z,57.80
2023-06-09T13:46:28.696Z,57.44
2023-06-09T13:48:56.602Z,57.45
2023-06-09T13:51:24.664Z,57.31
2023-06-09T13:53:52.469Z,57.34
2023-06-09T13:56:22.465Z,57.49
2023-06-09T13:58:50.657Z,57.43
2023-06-09T14:01:18.854Z,57.40
2023-06-09T14:03:47.337Z,57.51
2023-06-09T14:06:15.553Z,58.01
2023-06-09T14:08:43.512Z,58.43
2023-06-09T14:11:11.436Z,58.26
2023-06-09T14:13:39.452Z,58.30
2023-06-09T14:16:07.364Z,58.56
2023-06-09T14:18:35.837Z,59.12
2023-06-09T14:21:04.977Z,59.27
2023-06-09T14:23:33.171Z,58.86
2023-06-09T14:26:01.198Z,58.76
2023-06-09T14:28:29.035Z,58.85
2023-06-09T14:30:57.380Z,59.20
2023-06-09T14:33:25.295Z,59.33
2023-06-09T14:35:53.221Z,58.78
2023-06-09T14:38:21.320Z,58.67
2023-06-09T14:40:49.247Z,58.89
2023-06-09T14:43:17.287Z,59.26
2023-06-09T14:45:45.198Z,59.39
2023-06-09T14:48:13.244Z,59.48
2023-06-09T14:50:45.725Z,59.50
2023-06-09T14:53:15.284Z,59.57
2023-06-09T14:55:48.838Z,59.80
2023-06-09T14:58:20.010Z,60.31
2023-06-09T15:00:48.370Z,60.26
2023-06-09T15:03:18.287Z,59.90
2023-06-09T15:05:47.497Z,59.74
2023-06-09T15:08:15.780Z,59.62
2023-06-09T15:10:46.761Z,59.56
2023-06-09T15:13:17.477Z,59.42
2023-06-09T15:15:49.100Z,59.25
2023-06-09T15:18:17.111Z,59.48
2023-06-09T15:20:45.317Z,59.56
2023-06-09T15:23:14.266Z,59.48
2023-06-09T15:25:45.582Z,59.63
2023-06-09T15:28:16.659Z,59.63
2023-06-09T15:30:48.954Z,59.72
2023-06-09T15:33:22.665Z,59.86
2023-06-09T15:35:54.291Z,60.02
2023-06-09T15:38:27.971Z,60.48
2023-06-09T15:40:57.880Z,60.71
2023-06-09T15:43:38.202Z,60.95
2023-06-09T15:46:06.386Z,61.14
2023-06-09T15:48:34.743Z,61.13
2023-06-09T15:51:02.773Z,61.12
2023-06-09T15:53:30.723Z,61.14
2023-06-09T15:55:58.636Z,61.32
2023-06-09T15:58:26.497Z,61.59
2023-06-09T16:00:54.346Z,61.71
2023-06-09T16:03:22.447Z,61.82
2023-06-09T16:05:50.569Z,62.16
2023-06-09T16:08:20.217Z,62.38
2023-06-09T16:10:52.471Z,62.56
2023-06-09T16:13:22.378Z,62.14
2023-06-09T16:15:52.008Z,62.13
2023-06-09T16:18:22.995Z,61.96
2023-06-09T16:20:51.391Z,61.97
2023-06-09T16:23:19.347Z,62.22
2023-06-09T16:25:47.229Z,62.07
2023-06-09T16:28:16.309Z,62.04
2023-06-09T16:30:44.922Z,61.75
2023-06-09T16:33:13.724Z,61.88
2023-06-09T16:35:41.670Z,61.96
2023-06-09T16:38:09.598Z,61.81
2023-06-09T16:40:40.234Z,61.60
2023-06-09T16:43:08.286Z,61.22
2023-06-09T16:45:36.197Z,60.97
2023-06-09T16:48:04.620Z,60.81
2023-06-09T16:50:32.624Z,60.80
2023-06-09T16:53:01.218Z,60.74
2023-06-09T16:55:29.174Z,60.60
2023-06-09T16:57:57.192Z,60.35
2023-06-09T17:00:25.067Z,60.21
2023-06-09T17:02:55.775Z,60.22
2023-06-09T17:05:24.774Z,60.17
2023-06-09T17:07:52.945Z,59.78
2023-06-09T17:10:21.255Z,59.16
2023-06-09T17:12:49.738Z,59.27
2023-06-09T17:15:17.902Z,59.62
2023-06-09T17:17:45.846Z,59.98
2023-06-09T17:20:14.068Z,60.15
2023-06-09T17:22:43.205Z,60.23
2023-06-09T17:25:11.363Z,60.44
2023-06-09T17:27:39.754Z,60.63
2023-06-09T17:30:14.359Z,60.75
2023-06-09T17:32:45.359Z,60.68
2023-06-09T17:35:14.362Z,60.71
2023-06-09T17:37:43.681Z,60.99
2023-06-09T17:40:13.275Z,61.02
2023-06-09T17:42:42.263Z,61.04
2023-06-09T17:45:12.687Z,61.18
2023-06-09T17:47:41.024Z,61.35
2023-06-09T17:50:10.122Z,61.49
2023-06-09T17:52:38.193Z,61.74
2023-06-09T17:55:07.208Z,61.67
2023-06-09T17:57:35.664Z,61.86
2023-06-09T18:00:06.749Z,61.99
2023-06-09T18:02:34.914Z,61.98
2023-06-09T18:05:04.521Z,62.29
2023-06-09T18:07:32.875Z,62.37
2023-06-09T18:10:03.087Z,62.02
2023-06-09T18:12:31.156Z,62.08
2023-06-09T18:14:59.438Z,61.76
2023-06-09T18:17:27.356Z,61.50
2023-06-09T18:19:56.325Z,61.60
2023-06-09T18:22:25.933Z,61.38
2023-06-09T18:24:53.891Z,61.16
2023-06-09T18:27:21.825Z,60.96
2023-06-09T18:29:49.691Z,61.06
2023-06-09T18:32:18.069Z,61.23
2023-06-09T18:34:49.873Z,61.13
2023-06-09T18:37:18.379Z,61.01
2023-06-09T18:39:46.439Z,61.12
2023-06-09T18:42:15.537Z,61.11
2023-06-09T18:44:44.049Z,61.33
2023-06-09T18:47:13.011Z,61.19
2023-06-09T18:49:41.141Z,61.09
2023-06-09T18:52:09.558Z,61.01
2023-06-09T18:54:37.610Z,60.94
2023-06-09T18:57:08.155Z,60.85
2023-06-09T18:59:36.182Z,60.72
2023-06-09T19:02:04.519Z,60.77
2023-06-09T19:04:32.396Z,60.75
2023-06-09T19:07:00.437Z,60.75
2023-06-09T19:09:28.378Z,60.75
2023-06-09T19:11:56.498Z,60.88
2023-06-09T19:14:24.526Z,60.76
2023-06-09T19:16:52.464Z,60.58
2023-06-09T19:19:20.750Z,60.79
2023-06-09T19:21:50.034Z,60.68
2023-06-09T19:24:18.150Z,60.51
2023-06-09T19:26:46.608Z,60.52
2023-06-09T19:29:14.526Z,60.46
2023-06-09T19:31:42.730Z,60.32
2023-06-09T19:34:11.257Z,60.40
2023-06-09T19:36:39.241Z,60.30
2023-06-09T19:39:07.802Z,60.30
2023-06-09T19:41:35.816Z,60.32
2023-06-09T19:44:03.916Z,60.29
2023-06-09T19:46:32.084Z,60.30
2023-06-09T19:49:03.373Z,60.35
2023-06-09T19:51:31.287Z,60.69
2023-06-09T19:54:00.406Z,62.28
2023-06-09T19:56:29.541Z,60.55
2023-06-09T19:58:57.406Z,60.34
2023-06-09T20:01:25.282Z,60.23
2023-06-09T20:03:53.228Z,60.25
2023-06-09T20:06:21.409Z,60.36
2023-06-09T20:08:49.424Z,60.39
2023-06-09T20:11:17.766Z,60.44
2023-06-09T20:13:47.997Z,60.55
2023-06-09T20:16:16.376Z,60.73
2023-06-09T20:18:44.267Z,60.75
2023-06-09T20:21:12.202Z,60.93
2023-06-09T20:23:43.736Z,61.07
2023-06-09T20:26:12.978Z,61.11
2023-06-09T20:28:43.366Z,61.15
2023-06-09T20:31:11.865Z,61.24
2023-06-09T20:33:49.448Z,61.12
2023-06-09T20:36:17.778Z,61.06
2023-06-09T20:38:46.074Z,61.36
2023-06-09T20:41:14.013Z,61.24
2023-06-09T20:43:41.920Z,61.07
2023-06-09T20:46:11.107Z,61.03
2023-06-09T20:48:40.229Z,61.04
2023-06-09T20:51:08.536Z,60.94
2023-06-09T20:53:38.674Z,60.72
2023-06-09T20:56:06.550Z,60.41
2023-06-09T20:58:34.572Z,60.45
2023-06-09T21:01:02.480Z,60.54
2023-06-09T21:03:38.963Z,60.55
2023-06-09T21:06:07.540Z,60.41
2023-06-09T21:08:35.720Z,60.34
2023-06-09T21:11:03.752Z,60.28
2023-06-09T21:13:32.745Z,60.30
2023-06-09T21:16:00.785Z,60.38
2023-06-09T21:18:28.713Z,60.46
2023-06-09T21:20:56.684Z,60.49
2023-06-09T21:23:25.333Z,60.64
2023-06-09T21:25:53.338Z,60.64
2023-06-09T21:28:21.211Z,60.96
2023-06-09T21:30:49.168Z,60.88
2023-06-09T21:33:17.088Z,61.01
2023-06-09T21:35:45.211Z,61.08
2023-06-09T21:38:13.104Z,61.13
2023-06-09T21:40:41.048Z,61.23
2023-06-09T21:43:09.441Z,61.28
2023-06-09T21:45:37.494Z,61.20
2023-06-09T21:48:05.757Z,61.35
2023-06-09T21:50:33.804Z,61.53
2023-06-09T21:53:02.168Z,61.71
2023-06-09T21:55:30.071Z,61.70
2023-06-09T21:58:01.925Z,61.78
2023-06-09T22:00:31.919Z,62.13
2023-06-09T22:03:01.684Z,62.30
2023-06-09T22:05:30.003Z,62.22
2023-06-09T22:07:57.868Z,62.33
2023-06-09T22:10:26.300Z,62.51
2023-06-09T22:12:54.285Z,62.40
2023-06-09T22:15:22.347Z,62.84
2023-06-09T22:17:50.264Z,62.58
2023-06-09T22:20:18.129Z,62.40
2023-06-09T22:22:45.980Z,62.75
2023-06-09T22:25:13.863Z,62.84
2023-06-09T22:27:41.925Z,63.29
2023-06-09T22:30:10.430Z,63.50
2023-06-09T22:32:38.290Z,63.31
2023-06-09T22:35:06.665Z,63.33
2023-06-09T22:37:35.109Z,63.65
2023-06-09T22:40:04.507Z,63.61
2023-06-09T22:42:32.595Z,63.58
2023-06-09T22:45:00.850Z,63.34
2023-06-09T22:47:28.814Z,63.44
2023-06-09T22:50:11.164Z,63.34
2023-06-09T22:52:46.353Z,63.33
2023-06-09T22:55:16.559Z,63.49
2023-06-09T22:57:49.817Z,63.44
2023-06-09T23:00:23.608Z,63.48
2023-06-09T23:02:52.981Z,63.60
2023-06-09T23:05:32.607Z,63.42
2023-06-09T23:08:01.047Z,63.37
2023-06-09T23:10:28.925Z,63.40
2023-06-09T23:12:56.900Z,63.22
2023-06-09T23:15:24.996Z,63.24
2023-06-09T23:17:53.810Z,63.30
2023-06-09T23:20:23.237Z,63.40
2023-06-09T23:22:54.080Z,63.31
2023-06-09T23:25:23.453Z,63.25
2023-06-09T23:27:51.965Z,63.26
2023-06-09T23:30:19.913Z,63.12
2023-06-09T23:32:47.969Z,62.92
2023-06-09T23:35:18.235Z,62.51
2023-06-09T23:37:47.072Z,62.55
2023-06-09T23:40:15.460Z,62.49
2023-06-09T23:42:43.320Z,62.53
2023-06-09T23:45:12.092Z,62.45
2023-06-09T23:47:40.238Z,62.38
2023-06-09T23:50:08.633Z,62.28
2023-06-09T23:52:37.232Z,62.07
2023-06-09T23:55:06.070Z,61.79
2023-06-09T23:57:34.868Z,61.54
